sensor_id;sensor_type;location;lat;lon;timestamp;temperature;humidity
14527;DHT22;7350;51.208;4.238;2023-05-14T00:01:45;20.70;99.90
14527;DHT22;7350;51.208;4.238;2023-05-14T00:04:14;20.70;99.90
14527;DHT22;7350;51.208;4.238;2023-05-14T00:06:42;20.70;99.90
14527;DHT22;7350;51.208;4.238;2023-05-14T00:09:09;20.70;99.90
14527;DHT22;7350;51.208;4.238;2023-05-14T00:11:36;20.70;99.90
14527;DHT22;7350;51.208;4.238;2023-05-14T00:14:03;20.70;99.90
14527;DHT22;7350;51.208;4.238;2023-05-14T00:16:30;20.70;99.90
14527;DHT22;7350;51.208;4.238;2023-05-14T00:18:57;20.70;99.90
14527;DHT22;7350;51.208;4.238;2023-05-14T00:21:26;20.70;99.90
14527;DHT22;7350;51.208;4.238;2023-05-14T00:23:52;20.60;99.90
14527;DHT22;7350;51.208;4.238;2023-05-14T00:26:19;20.70;99.90
14527;DHT22;7350;51.208;4.238;2023-05-14T00:28:46;20.70;99.90
14527;DHT22;7350;51.208;4.238;2023-05-14T00:31:14;20.60;99.90
14527;DHT22;7350;51.208;4.238;2023-05-14T00:33:41;20.60;99.90
14527;DHT22;7350;51.208;4.238;2023-05-14T00:36:08;20.60;99.90
14527;DHT22;7350;51.208;4.238;2023-05-14T00:38:36;20.60;99.90
14527;DHT22;7350;51.208;4.238;2023-05-14T00:41:03;20.60;99.90
14527;DHT22;7350;51.208;4.238;2023-05-14T00:43:30;20.60;99.90
14527;DHT22;7350;51.208;4.238;2023-05-14T00:45:58;20.60;99.90
14527;DHT22;7350;51.208;4.238;2023-05-14T00:48:26;20.60;99.90
14527;DHT22;7350;51.208;4.238;2023-05-14T00:50:53;20.60;99.90
14527;DHT22;7350;51.208;4.238;2023-05-14T00:53:20;20.60;99.90
14527;DHT22;7350;51.208;4.238;2023-05-14T00:55:49;20.60;99.90
14527;DHT22;7350;51.208;4.238;2023-05-14T00:58:17;20.60;99.90
14527;DHT22;7350;51.208;4.238;2023-05-14T01:00:44;20.60;99.90
14527;DHT22;7350;51.208;4.238;2023-05-14T01:03:11;20.60;99.90
14527;DHT22;7350;51.208;4.238;2023-05-14T01:05:44;20.60;99.90
14527;DHT22;7350;51.208;4.238;2023-05-14T01:08:24;20.60;99.90
14527;DHT22;7350;51.208;4.238;2023-05-14T01:10:59;20.60;99.90
14527;DHT22;7350;51.208;4.238;2023-05-14T01:13:35;20.60;99.90
14527;DHT22;7350;51.208;4.238;2023-05-14T01:16:09;20.50;99.90
14527;DHT22;7350;51.208;4.238;2023-05-14T01:18:39;20.50;99.90
14527;DHT22;7350;51.208;4.238;2023-05-14T01:21:23;20.60;99.90
14527;DHT22;7350;51.208;4.238;2023-05-14T01:23:50;20.50;99.90
14527;DHT22;7350;51.208;4.238;2023-05-14T01:26:17;20.50;99.90
14527;DHT22;7350;51.208;4.238;2023-05-14T01:28:46;20.60;99.90
14527;DHT22;7350;51.208;4.238;2023-05-14T01:31:17;20.50;99.90
14527;DHT22;7350;51.208;4.238;2023-05-14T01:33:50;20.50;99.90
14527;DHT22;7350;51.208;4.238;2023-05-14T01:36:17;20.60;99.90
14527;DHT22;7350;51.208;4.238;2023-05-14T01:38:46;20.60;99.90
14527;DHT22;7350;51.208;4.238;2023-05-14T01:41:17;20.60;99.90
14527;DHT22;7350;51.208;4.238;2023-05-14T01:43:46;20.60;99.90
14527;DHT22;7350;51.208;4.238;2023-05-14T01:46:16;20.60;99.90
14527;DHT22;7350;51.208;4.238;2023-05-14T01:48:43;20.50;99.90
14527;DHT22;7350;51.208;4.238;2023-05-14T01:51:10;20.60;99.90
14527;DHT22;7350;51.208;4.238;2023-05-14T01:53:39;20.60;99.90
14527;DHT22;7350;51.208;4.238;2023-05-14T01:56:07;20.60;99.90
14527;DHT22;7350;51.208;4.238;2023-05-14T01:58:34;20.60;99.90
14527;DHT22;7350;51.208;4.238;2023-05-14T02:01:01;20.50;99.90
14527;DHT22;7350;51.208;4.238;2023-05-14T02:03:28;20.60;99.90
14527;DHT22;7350;51.208;4.238;2023-05-14T02:05:55;20.50;99.90
14527;DHT22;7350;51.208;4.238;2023-05-14T02:08:22;20.50;99.90
14527;DHT22;7350;51.208;4.238;2023-05-14T02:10:49;20.50;99.90
14527;DHT22;7350;51.208;4.238;2023-05-14T02:13:18;20.50;99.90
14527;DHT22;7350;51.208;4.238;2023-05-14T02:15:45;20.50;99.90
14527;DHT22;7350;51.208;4.238;2023-05-14T02:18:12;20.50;99.90
14527;DHT22;7350;51.208;4.238;2023-05-14T02:20:39;20.50;99.90
14527;DHT22;7350;51.208;4.238;2023-05-14T02:23:06;20.50;99.90
14527;DHT22;7350;51.208;4.238;2023-05-14T02:25:33;20.50;99.90
14527;DHT22;7350;51.208;4.238;2023-05-14T02:28:00;20.50;99.90
14527;DHT22;7350;51.208;4.238;2023-05-14T02:30:28;20.50;99.90
14527;DHT22;7350;51.208;4.238;2023-05-14T02:32:56;20.50;99.90
14527;DHT22;7350;51.208;4.238;2023-05-14T02:35:23;20.50;99.90
14527;DHT22;7350;51.208;4.238;2023-05-14T02:37:49;20.50;99.90
14527;DHT22;7350;51.208;4.238;2023-05-14T02:40:17;20.50;99.90
14527;DHT22;7350;51.208;4.238;2023-05-14T02:42:43;20.50;99.90
14527;DHT22;7350;51.208;4.238;2023-05-14T02:45:10;20.50;99.90
14527;DHT22;7350;51.208;4.238;2023-05-14T02:47:39;20.50;99.90
14527;DHT22;7350;51.208;4.238;2023-05-14T02:50:07;20.40;99.90
14527;DHT22;7350;51.208;4.238;2023-05-14T02:52:35;20.40;99.90
14527;DHT22;7350;51.208;4.238;2023-05-14T02:55:02;20.50;99.90
14527;DHT22;7350;51.208;4.238;2023-05-14T02:57:29;20.40;99.90
14527;DHT22;7350;51.208;4.238;2023-05-14T02:59:56;20.40;99.90
14527;DHT22;7350;51.208;4.238;2023-05-14T03:02:23;20.40;99.90
14527;DHT22;7350;51.208;4.238;2023-05-14T03:04:51;20.40;99.90
14527;DHT22;7350;51.208;4.238;2023-05-14T03:07:18;20.40;99.90
14527;DHT22;7350;51.208;4.238;2023-05-14T03:09:45;20.40;99.90
14527;DHT22;7350;51.208;4.238;2023-05-14T03:12:12;20.40;99.90
14527;DHT22;7350;51.208;4.238;2023-05-14T03:14:39;20.40;99.90
14527;DHT22;7350;51.208;4.238;2023-05-14T03:17:06;20.40;99.90
14527;DHT22;7350;51.208;4.238;2023-05-14T03:19:33;20.40;99.90
14527;DHT22;7350;51.208;4.238;2023-05-14T03:22:01;20.40;99.90
14527;DHT22;7350;51.208;4.238;2023-05-14T03:24:28;20.40;99.90
14527;DHT22;7350;51.208;4.238;2023-05-14T03:26:56;20.40;99.90
14527;DHT22;7350;51.208;4.238;2023-05-14T03:29:23;20.40;99.90
14527;DHT22;7350;51.208;4.238;2023-05-14T03:31:49;20.40;99.90
14527;DHT22;7350;51.208;4.238;2023-05-14T03:34:17;20.50;99.90
14527;DHT22;7350;51.208;4.238;2023-05-14T03:36:44;20.40;99.90
14527;DHT22;7350;51.208;4.238;2023-05-14T03:39:12;20.40;99.90
14527;DHT22;7350;51.208;4.238;2023-05-14T03:41:40;20.40;99.90
14527;DHT22;7350;51.208;4.238;2023-05-14T03:44:07;20.40;99.90
14527;DHT22;7350;51.208;4.238;2023-05-14T03:46:33;20.40;99.90
14527;DHT22;7350;51.208;4.238;2023-05-14T03:49:00;20.40;99.90
14527;DHT22;7350;51.208;4.238;2023-05-14T03:51:27;20.40;99.90
14527;DHT22;7350;51.208;4.238;2023-05-14T03:53:54;20.30;99.90
14527;DHT22;7350;51.208;4.238;2023-05-14T03:56:24;20.30;99.90
14527;DHT22;7350;51.208;4.238;2023-05-14T03:58:51;20.30;99.90
14527;DHT22;7350;51.208;4.238;2023-05-14T04:01:18;20.30;99.90
14527;DHT22;7350;51.208;4.238;2023-05-14T04:03:45;20.30;99.90
14527;DHT22;7350;51.208;4.238;2023-05-14T04:06:12;20.30;99.90
14527;DHT22;7350;51.208;4.238;2023-05-14T04:08:39;20.30;99.90
14527;DHT22;7350;51.208;4.238;2023-05-14T04:11:06;20.30;99.90
14527;DHT22;7350;51.208;4.238;2023-05-14T04:13:34;20.30;99.90
14527;DHT22;7350;51.208;4.238;2023-05-14T04:16:01;20.30;99.90
14527;DHT22;7350;51.208;4.238;2023-05-14T04:18:28;20.30;99.90
14527;DHT22;7350;51.208;4.238;2023-05-14T04:20:59;20.30;99.90
14527;DHT22;7350;51.208;4.238;2023-05-14T04:23:26;20.30;99.90
14527;DHT22;7350;51.208;4.238;2023-05-14T04:25:53;20.30;99.90
14527;DHT22;7350;51.208;4.238;2023-05-14T04:28:20;20.30;99.90
14527;DHT22;7350;51.208;4.238;2023-05-14T04:30:49;20.20;99.90
14527;DHT22;7350;51.208;4.238;2023-05-14T04:33:16;20.20;99.90
14527;DHT22;7350;51.208;4.238;2023-05-14T04:35:43;20.20;99.90
14527;DHT22;7350;51.208;4.238;2023-05-14T04:38:10;20.20;99.90
14527;DHT22;7350;51.208;4.238;2023-05-14T04:40:38;20.20;99.90
14527;DHT22;7350;51.208;4.238;2023-05-14T04:43:06;20.30;99.90
14527;DHT22;7350;51.208;4.238;2023-05-14T04:45:33;20.20;99.90
14527;DHT22;7350;51.208;4.238;2023-05-14T04:48:01;20.20;99.90
14527;DHT22;7350;51.208;4.238;2023-05-14T04:50:28;20.20;99.90
14527;DHT22;7350;51.208;4.238;2023-05-14T04:52:55;20.20;99.90
14527;DHT22;7350;51.208;4.238;2023-05-14T04:55:22;20.20;99.90
14527;DHT22;7350;51.208;4.238;2023-05-14T04:57:49;20.20;99.90
14527;DHT22;7350;51.208;4.238;2023-05-14T05:00:17;20.20;99.90
14527;DHT22;7350;51.208;4.238;2023-05-14T05:02:46;20.20;99.90
14527;DHT22;7350;51.208;4.238;2023-05-14T05:05:14;20.20;99.90
14527;DHT22;7350;51.208;4.238;2023-05-14T05:07:41;20.30;99.90
14527;DHT22;7350;51.208;4.238;2023-05-14T05:10:08;20.30;99.90
14527;DHT22;7350;51.208;4.238;2023-05-14T05:12:35;20.30;99.90
14527;DHT22;7350;51.208;4.238;2023-05-14T05:15:02;20.30;99.90
14527;DHT22;7350;51.208;4.238;2023-05-14T05:17:30;20.30;99.90
14527;DHT22;7350;51.208;4.238;2023-05-14T05:19:57;20.30;99.90
14527;DHT22;7350;51.208;4.238;2023-05-14T05:22:25;20.30;99.90
14527;DHT22;7350;51.208;4.238;2023-05-14T05:24:52;20.30;99.90
14527;DHT22;7350;51.208;4.238;2023-05-14T05:27:19;20.30;99.90
14527;DHT22;7350;51.208;4.238;2023-05-14T05:29:46;20.30;99.90
14527;DHT22;7350;51.208;4.238;2023-05-14T05:32:13;20.30;99.90
14527;DHT22;7350;51.208;4.238;2023-05-14T05:34:40;20.20;99.90
14527;DHT22;7350;51.208;4.238;2023-05-14T05:37:07;20.20;99.90
14527;DHT22;7350;51.208;4.238;2023-05-14T05:39:38;20.30;99.90
14527;DHT22;7350;51.208;4.238;2023-05-14T05:42:06;20.20;99.90
14527;DHT22;7350;51.208;4.238;2023-05-14T05:44:33;20.30;99.90
14527;DHT22;7350;51.208;4.238;2023-05-14T05:47:00;20.30;99.90
14527;DHT22;7350;51.208;4.238;2023-05-14T05:49:27;20.30;99.90
14527;DHT22;7350;51.208;4.238;2023-05-14T05:51:54;20.40;99.90
14527;DHT22;7350;51.208;4.238;2023-05-14T05:54:22;20.30;99.90
14527;DHT22;7350;51.208;4.238;2023-05-14T05:56:51;20.30;99.90
14527;DHT22;7350;51.208;4.238;2023-05-14T05:59:18;20.30;99.90
14527;DHT22;7350;51.208;4.238;2023-05-14T06:01:45;20.30;99.90
14527;DHT22;7350;51.208;4.238;2023-05-14T06:04:12;20.20;99.90
14527;DHT22;7350;51.208;4.238;2023-05-14T06:06:39;20.20;99.90
14527;DHT22;7350;51.208;4.238;2023-05-14T06:09:06;20.30;99.90
14527;DHT22;7350;51.208;4.238;2023-05-14T06:11:34;20.40;99.90
14527;DHT22;7350;51.208;4.238;2023-05-14T06:14:02;20.40;99.90
14527;DHT22;7350;51.208;4.238;2023-05-14T06:16:29;20.30;99.90
14527;DHT22;7350;51.208;4.238;2023-05-14T06:18:56;20.30;99.90
14527;DHT22;7350;51.208;4.238;2023-05-14T06:21:23;20.30;99.90
14527;DHT22;7350;51.208;4.238;2023-05-14T06:23:50;20.30;99.90
14527;DHT22;7350;51.208;4.238;2023-05-14T06:26:17;20.30;99.90
14527;DHT22;7350;51.208;4.238;2023-05-14T06:28:44;20.20;99.90
14527;DHT22;7350;51.208;4.238;2023-05-14T06:31:12;20.20;99.90
14527;DHT22;7350;51.208;4.238;2023-05-14T06:33:39;20.30;99.90
14527;DHT22;7350;51.208;4.238;2023-05-14T06:36:07;20.30;99.90
14527;DHT22;7350;51.208;4.238;2023-05-14T06:38:34;20.30;99.90
14527;DHT22;7350;51.208;4.238;2023-05-14T06:41:01;20.30;99.90
14527;DHT22;7350;51.208;4.238;2023-05-14T06:43:28;20.20;99.90
14527;DHT22;7350;51.208;4.238;2023-05-14T06:45:55;20.20;99.90
14527;DHT22;7350;51.208;4.238;2023-05-14T06:48:23;20.20;99.90
14527;DHT22;7350;51.208;4.238;2023-05-14T06:50:52;20.20;99.90
14527;DHT22;7350;51.208;4.238;2023-05-14T06:53:19;20.10;99.90
14527;DHT22;7350;51.208;4.238;2023-05-14T06:55:46;20.10;99.90
14527;DHT22;7350;51.208;4.238;2023-05-14T06:58:13;20.10;99.90
14527;DHT22;7350;51.208;4.238;2023-05-14T07:00:41;20.10;99.90
14527;DHT22;7350;51.208;4.238;2023-05-14T07:03:08;20.10;99.90
14527;DHT22;7350;51.208;4.238;2023-05-14T07:05:37;20.20;99.90
14527;DHT22;7350;51.208;4.238;2023-05-14T07:08:05;20.10;99.90
14527;DHT22;7350;51.208;4.238;2023-05-14T07:10:32;20.20;99.90
14527;DHT22;7350;51.208;4.238;2023-05-14T07:12:59;20.20;99.90
14527;DHT22;7350;51.208;4.238;2023-05-14T07:15:26;20.20;99.90
14527;DHT22;7350;51.208;4.238;2023-05-14T07:17:53;20.20;99.90
14527;DHT22;7350;51.208;4.238;2023-05-14T07:20:21;20.10;99.90
14527;DHT22;7350;51.208;4.238;2023-05-14T07:22:51;20.10;99.90
14527;DHT22;7350;51.208;4.238;2023-05-14T07:25:18;20.10;99.90
14527;DHT22;7350;51.208;4.238;2023-05-14T07:27:45;20.10;99.90
14527;DHT22;7350;51.208;4.238;2023-05-14T07:30:13;20.10;99.90
14527;DHT22;7350;51.208;4.238;2023-05-14T07:32:40;20.20;99.90
14527;DHT22;7350;51.208;4.238;2023-05-14T07:35:08;20.10;99.90
14527;DHT22;7350;51.208;4.238;2023-05-14T07:37:36;20.20;99.90
14527;DHT22;7350;51.208;4.238;2023-05-14T07:40:05;20.20;99.90
14527;DHT22;7350;51.208;4.238;2023-05-14T07:42:33;20.20;99.90
14527;DHT22;7350;51.208;4.238;2023-05-14T07:45:00;20.20;99.90
14527;DHT22;7350;51.208;4.238;2023-05-14T07:47:27;20.30;99.90
14527;DHT22;7350;51.208;4.238;2023-05-14T07:49:54;20.30;99.90
14527;DHT22;7350;51.208;4.238;2023-05-14T07:52:21;20.30;99.90
14527;DHT22;7350;51.208;4.238;2023-05-14T07:54:49;20.30;99.90
14527;DHT22;7350;51.208;4.238;2023-05-14T07:57:17;20.20;99.90
14527;DHT22;7350;51.208;4.238;2023-05-14T07:59:45;20.20;99.90
14527;DHT22;7350;51.208;4.238;2023-05-14T08:02:13;20.20;99.90
14527;DHT22;7350;51.208;4.238;2023-05-14T08:04:40;20.20;99.90
14527;DHT22;7350;51.208;4.238;2023-05-14T08:07:07;20.10;99.90
14527;DHT22;7350;51.208;4.238;2023-05-14T08:09:34;20.20;99.90
14527;DHT22;7350;51.208;4.238;2023-05-14T08:12:02;20.20;99.90
14527;DHT22;7350;51.208;4.238;2023-05-14T08:14:30;20.20;99.90
14527;DHT22;7350;51.208;4.238;2023-05-14T08:16:57;20.20;99.90
14527;DHT22;7350;51.208;4.238;2023-05-14T08:19:24;20.10;99.90
14527;DHT22;7350;51.208;4.238;2023-05-14T08:21:52;20.20;99.90
14527;DHT22;7350;51.208;4.238;2023-05-14T08:24:18;20.20;99.90
14527;DHT22;7350;51.208;4.238;2023-05-14T08:26:46;20.20;99.90
14527;DHT22;7350;51.208;4.238;2023-05-14T08:29:12;20.20;99.90
14527;DHT22;7350;51.208;4.238;2023-05-14T08:31:41;20.20;99.90
14527;DHT22;7350;51.208;4.238;2023-05-14T08:34:08;20.20;99.90
14527;DHT22;7350;51.208;4.238;2023-05-14T08:36:35;20.20;99.90
14527;DHT22;7350;51.208;4.238;2023-05-14T08:39:02;20.30;99.90
14527;DHT22;7350;51.208;4.238;2023-05-14T08:41:29;20.30;99.90
14527;DHT22;7350;51.208;4.238;2023-05-14T08:44:04;20.20;99.90
14527;DHT22;7350;51.208;4.238;2023-05-14T08:46:33;20.30;99.90
14527;DHT22;7350;51.208;4.238;2023-05-14T08:49:07;20.30;99.90
14527;DHT22;7350;51.208;4.238;2023-05-14T08:51:37;20.20;99.90
14527;DHT22;7350;51.208;4.238;2023-05-14T08:54:05;20.20;99.90
14527;DHT22;7350;51.208;4.238;2023-05-14T08:56:32;20.30;99.90
14527;DHT22;7350;51.208;4.238;2023-05-14T08:58:59;20.20;99.90
14527;DHT22;7350;51.208;4.238;2023-05-14T09:01:27;20.30;99.90
14527;DHT22;7350;51.208;4.238;2023-05-14T09:03:54;20.30;99.90
14527;DHT22;7350;51.208;4.238;2023-05-14T09:06:23;20.30;99.90
14527;DHT22;7350;51.208;4.238;2023-05-14T09:08:51;20.30;99.90
14527;DHT22;7350;51.208;4.238;2023-05-14T09:11:18;20.30;99.90
14527;DHT22;7350;51.208;4.238;2023-05-14T09:13:46;20.30;99.90
14527;DHT22;7350;51.208;4.238;2023-05-14T09:16:13;20.30;99.90
14527;DHT22;7350;51.208;4.238;2023-05-14T09:18:42;20.30;99.90
14527;DHT22;7350;51.208;4.238;2023-05-14T09:21:11;20.40;99.90
14527;DHT22;7350;51.208;4.238;2023-05-14T09:23:41;20.40;99.90
14527;DHT22;7350;51.208;4.238;2023-05-14T09:26:08;20.40;99.90
14527;DHT22;7350;51.208;4.238;2023-05-14T09:28:35;20.40;99.90
14527;DHT22;7350;51.208;4.238;2023-05-14T09:31:05;20.40;99.90
14527;DHT22;7350;51.208;4.238;2023-05-14T09:33:32;20.50;99.90
14527;DHT22;7350;51.208;4.238;2023-05-14T09:36:00;20.50;99.90
14527;DHT22;7350;51.208;4.238;2023-05-14T09:38:27;20.50;99.90
14527;DHT22;7350;51.208;4.238;2023-05-14T09:40:57;20.50;99.90
14527;DHT22;7350;51.208;4.238;2023-05-14T09:43:24;20.50;99.90
14527;DHT22;7350;51.208;4.238;2023-05-14T09:45:51;20.50;99.90
14527;DHT22;7350;51.208;4.238;2023-05-14T09:48:19;20.50;99.90
14527;DHT22;7350;51.208;4.238;2023-05-14T09:50:46;20.50;99.90
14527;DHT22;7350;51.208;4.238;2023-05-14T09:53:13;20.50;99.90
14527;DHT22;7350;51.208;4.238;2023-05-14T09:55:42;20.50;99.90
14527;DHT22;7350;51.208;4.238;2023-05-14T09:58:10;20.50;99.90
14527;DHT22;7350;51.208;4.238;2023-05-14T10:00:40;20.50;99.90
14527;DHT22;7350;51.208;4.238;2023-05-14T10:03:12;20.60;99.90
14527;DHT22;7350;51.208;4.238;2023-05-14T10:05:40;20.60;99.90
14527;DHT22;7350;51.208;4.238;2023-05-14T10:08:11;20.50;99.90
14527;DHT22;7350;51.208;4.238;2023-05-14T10:10:39;20.50;99.90
14527;DHT22;7350;51.208;4.238;2023-05-14T10:13:12;20.50;99.90
14527;DHT22;7350;51.208;4.238;2023-05-14T10:15:42;20.60;99.90
14527;DHT22;7350;51.208;4.238;2023-05-14T10:18:22;20.60;99.90
14527;DHT22;7350;51.208;4.238;2023-05-14T10:20:55;20.60;99.90
14527;DHT22;7350;51.208;4.238;2023-05-14T10:23:23;20.70;99.90
14527;DHT22;7350;51.208;4.238;2023-05-14T10:25:50;20.60;99.90
14527;DHT22;7350;51.208;4.238;2023-05-14T10:28:18;20.60;99.90
14527;DHT22;7350;51.208;4.238;2023-05-14T10:30:45;20.60;99.90
14527;DHT22;7350;51.208;4.238;2023-05-14T10:33:14;20.60;99.90
14527;DHT22;7350;51.208;4.238;2023-05-14T10:35:51;20.60;99.90
14527;DHT22;7350;51.208;4.238;2023-05-14T10:38:22;20.60;99.90
14527;DHT22;7350;51.208;4.238;2023-05-14T10:40:49;20.70;99.90
14527;DHT22;7350;51.208;4.238;2023-05-14T10:43:18;20.70;99.90
14527;DHT22;7350;51.208;4.238;2023-05-14T10:45:46;20.70;99.90
14527;DHT22;7350;51.208;4.238;2023-05-14T10:48:13;20.70;99.90
14527;DHT22;7350;51.208;4.238;2023-05-14T10:50:41;20.70;99.90
14527;DHT22;7350;51.208;4.238;2023-05-14T10:53:10;20.70;99.90
14527;DHT22;7350;51.208;4.238;2023-05-14T10:55:38;20.70;99.90
14527;DHT22;7350;51.208;4.238;2023-05-14T10:58:05;20.70;99.90
14527;DHT22;7350;51.208;4.238;2023-05-14T11:00:34;20.80;99.90
14527;DHT22;7350;51.208;4.238;2023-05-14T11:03:03;20.80;99.90
14527;DHT22;7350;51.208;4.238;2023-05-14T11:05:31;20.80;99.90
14527;DHT22;7350;51.208;4.238;2023-05-14T11:07:58;20.80;99.90
14527;DHT22;7350;51.208;4.238;2023-05-14T11:10:28;20.80;99.90
14527;DHT22;7350;51.208;4.238;2023-05-14T11:12:56;20.90;99.90
14527;DHT22;7350;51.208;4.238;2023-05-14T11:15:24;20.90;99.90
14527;DHT22;7350;51.208;4.238;2023-05-14T11:17:54;20.90;99.90
14527;DHT22;7350;51.208;4.238;2023-05-14T11:20:21;20.90;99.90
14527;DHT22;7350;51.208;4.238;2023-05-14T11:22:48;21.00;99.90
14527;DHT22;7350;51.208;4.238;2023-05-14T11:25:17;21.00;99.90
14527;DHT22;7350;51.208;4.238;2023-05-14T11:27:45;21.00;99.90
14527;DHT22;7350;51.208;4.238;2023-05-14T11:30:13;21.00;99.90
14527;DHT22;7350;51.208;4.238;2023-05-14T11:32:43;21.00;99.90
14527;DHT22;7350;51.208;4.238;2023-05-14T11:35:11;21.10;99.90
14527;DHT22;7350;51.208;4.238;2023-05-14T11:37:38;21.10;99.90
14527;DHT22;7350;51.208;4.238;2023-05-14T11:40:07;21.10;99.90
14527;DHT22;7350;51.208;4.238;2023-05-14T11:42:36;21.10;99.90
14527;DHT22;7350;51.208;4.238;2023-05-14T11:45:03;21.10;99.90
14527;DHT22;7350;51.208;4.238;2023-05-14T11:47:31;21.20;99.90
14527;DHT22;7350;51.208;4.238;2023-05-14T11:49:59;21.20;99.90
14527;DHT22;7350;51.208;4.238;2023-05-14T11:52:27;21.20;99.90
14527;DHT22;7350;51.208;4.238;2023-05-14T11:54:54;21.20;99.90
14527;DHT22;7350;51.208;4.238;2023-05-14T11:57:22;21.20;99.90
14527;DHT22;7350;51.208;4.238;2023-05-14T11:59:54;21.20;99.90
14527;DHT22;7350;51.208;4.238;2023-05-14T12:02:23;21.30;99.90
14527;DHT22;7350;51.208;4.238;2023-05-14T12:04:52;21.30;99.90
14527;DHT22;7350;51.208;4.238;2023-05-14T12:07:19;21.30;99.90
14527;DHT22;7350;51.208;4.238;2023-05-14T12:09:48;21.40;99.90
14527;DHT22;7350;51.208;4.238;2023-05-14T12:12:17;21.40;99.90
14527;DHT22;7350;51.208;4.238;2023-05-14T12:14:45;21.40;99.90
14527;DHT22;7350;51.208;4.238;2023-05-14T12:17:14;21.40;99.90
14527;DHT22;7350;51.208;4.238;2023-05-14T12:19:42;21.40;99.90
14527;DHT22;7350;51.208;4.238;2023-05-14T12:22:09;21.50;99.90
14527;DHT22;7350;51.208;4.238;2023-05-14T12:24:37;21.50;99.90
14527;DHT22;7350;51.208;4.238;2023-05-14T12:27:07;21.50;99.90
14527;DHT22;7350;51.208;4.238;2023-05-14T12:29:35;21.50;99.90
14527;DHT22;7350;51.208;4.238;2023-05-14T12:32:07;21.50;99.90
14527;DHT22;7350;51.208;4.238;2023-05-14T12:34:35;21.60;99.90
14527;DHT22;7350;51.208;4.238;2023-05-14T12:37:03;21.60;99.90
14527;DHT22;7350;51.208;4.238;2023-05-14T12:39:32;21.60;99.90
14527;DHT22;7350;51.208;4.238;2023-05-14T12:42:00;21.60;99.90
14527;DHT22;7350;51.208;4.238;2023-05-14T12:44:28;21.60;99.90
14527;DHT22;7350;51.208;4.238;2023-05-14T12:46:55;21.60;99.90
14527;DHT22;7350;51.208;4.238;2023-05-14T12:49:23;21.60;99.90
14527;DHT22;7350;51.208;4.238;2023-05-14T12:51:50;21.60;99.90
14527;DHT22;7350;51.208;4.238;2023-05-14T12:54:17;21.70;99.90
14527;DHT22;7350;51.208;4.238;2023-05-14T12:56:44;21.80;99.90
14527;DHT22;7350;51.208;4.238;2023-05-14T12:59:11;21.80;99.90
14527;DHT22;7350;51.208;4.238;2023-05-14T13:01:39;21.80;99.90
14527;DHT22;7350;51.208;4.238;2023-05-14T13:04:06;21.80;99.90
14527;DHT22;7350;51.208;4.238;2023-05-14T13:06:37;21.90;99.90
14527;DHT22;7350;51.208;4.238;2023-05-14T13:09:04;21.80;99.90
14527;DHT22;7350;51.208;4.238;2023-05-14T13:11:31;21.80;99.90
14527;DHT22;7350;51.208;4.238;2023-05-14T13:13:58;21.80;99.90
14527;DHT22;7350;51.208;4.238;2023-05-14T13:16:27;21.80;99.90
14527;DHT22;7350;51.208;4.238;2023-05-14T13:18:55;21.80;99.90
14527;DHT22;7350;51.208;4.238;2023-05-14T13:21:22;21.90;99.90
14527;DHT22;7350;51.208;4.238;2023-05-14T13:23:49;21.90;99.90
14527;DHT22;7350;51.208;4.238;2023-05-14T13:26:16;22.00;99.90
14527;DHT22;7350;51.208;4.238;2023-05-14T13:28:43;22.00;99.90
14527;DHT22;7350;51.208;4.238;2023-05-14T13:31:11;22.00;99.90
14527;DHT22;7350;51.208;4.238;2023-05-14T13:33:40;22.00;99.90
14527;DHT22;7350;51.208;4.238;2023-05-14T13:36:09;22.00;99.90
14527;DHT22;7350;51.208;4.238;2023-05-14T13:38:37;22.10;99.90
14527;DHT22;7350;51.208;4.238;2023-05-14T13:41:04;22.10;99.90
14527;DHT22;7350;51.208;4.238;2023-05-14T13:43:32;22.00;99.90
14527;DHT22;7350;51.208;4.238;2023-05-14T13:46:00;22.10;99.90
14527;DHT22;7350;51.208;4.238;2023-05-14T13:48:28;22.10;99.90
14527;DHT22;7350;51.208;4.238;2023-05-14T13:50:56;22.10;99.90
14527;DHT22;7350;51.208;4.238;2023-05-14T13:53:24;22.10;99.90
14527;DHT22;7350;51.208;4.238;2023-05-14T13:55:51;22.10;99.90
14527;DHT22;7350;51.208;4.238;2023-05-14T13:58:21;22.10;99.90
14527;DHT22;7350;51.208;4.238;2023-05-14T14:00:49;22.10;99.90
14527;DHT22;7350;51.208;4.238;2023-05-14T14:03:16;22.10;99.90
14527;DHT22;7350;51.208;4.238;2023-05-14T14:05:43;22.10;99.90
14527;DHT22;7350;51.208;4.238;2023-05-14T14:08:10;22.10;99.90
14527;DHT22;7350;51.208;4.238;2023-05-14T14:10:39;22.20;99.90
14527;DHT22;7350;51.208;4.238;2023-05-14T14:13:07;22.20;99.90
14527;DHT22;7350;51.208;4.238;2023-05-14T14:15:34;22.20;99.90
14527;DHT22;7350;51.208;4.238;2023-05-14T14:18:01;22.20;99.90
14527;DHT22;7350;51.208;4.238;2023-05-14T14:20:28;22.20;99.90
14527;DHT22;7350;51.208;4.238;2023-05-14T14:22:55;22.20;99.90
14527;DHT22;7350;51.208;4.238;2023-05-14T14:25:22;22.20;99.90
14527;DHT22;7350;51.208;4.238;2023-05-14T14:27:51;22.20;99.90
14527;DHT22;7350;51.208;4.238;2023-05-14T14:30:18;22.20;99.90
14527;DHT22;7350;51.208;4.238;2023-05-14T14:32:45;22.20;99.90
14527;DHT22;7350;51.208;4.238;2023-05-14T14:35:14;22.10;99.90
14527;DHT22;7350;51.208;4.238;2023-05-14T14:37:42;22.20;99.90
14527;DHT22;7350;51.208;4.238;2023-05-14T14:40:13;22.20;99.90
14527;DHT22;7350;51.208;4.238;2023-05-14T14:42:41;22.20;99.90
14527;DHT22;7350;51.208;4.238;2023-05-14T14:45:10;22.20;99.90
14527;DHT22;7350;51.208;4.238;2023-05-14T14:47:41;22.20;99.90
14527;DHT22;7350;51.208;4.238;2023-05-14T14:50:08;22.20;99.90
14527;DHT22;7350;51.208;4.238;2023-05-14T14:52:35;22.20;99.90
14527;DHT22;7350;51.208;4.238;2023-05-14T14:55:03;22.20;99.90
14527;DHT22;7350;51.208;4.238;2023-05-14T14:57:30;22.30;99.90
14527;DHT22;7350;51.208;4.238;2023-05-14T14:59:57;22.30;99.90
14527;DHT22;7350;51.208;4.238;2023-05-14T15:02:25;22.30;99.90
14527;DHT22;7350;51.208;4.238;2023-05-14T15:04:52;22.20;99.90
14527;DHT22;7350;51.208;4.238;2023-05-14T15:07:19;22.20;99.90
14527;DHT22;7350;51.208;4.238;2023-05-14T15:09:47;22.30;99.90
14527;DHT22;7350;51.208;4.238;2023-05-14T15:12:14;22.20;99.90
14527;DHT22;7350;51.208;4.238;2023-05-14T15:14:41;22.20;99.90
14527;DHT22;7350;51.208;4.238;2023-05-14T15:17:08;22.20;99.90
14527;DHT22;7350;51.208;4.238;2023-05-14T15:19:37;22.20;99.90
14527;DHT22;7350;51.208;4.238;2023-05-14T15:22:04;22.20;99.90
14527;DHT22;7350;51.208;4.238;2023-05-14T15:24:31;22.20;99.90
14527;DHT22;7350;51.208;4.238;2023-05-14T15:26:58;22.20;99.90
14527;DHT22;7350;51.208;4.238;2023-05-14T15:29:25;22.30;99.90
14527;DHT22;7350;51.208;4.238;2023-05-14T15:31:53;22.30;99.90
14527;DHT22;7350;51.208;4.238;2023-05-14T15:34:20;22.30;99.90
14527;DHT22;7350;51.208;4.238;2023-05-14T15:36:48;22.30;99.90
14527;DHT22;7350;51.208;4.238;2023-05-14T15:39:15;22.30;99.90
14527;DHT22;7350;51.208;4.238;2023-05-14T15:41:42;22.30;99.90
14527;DHT22;7350;51.208;4.238;2023-05-14T15:44:09;22.30;99.90
14527;DHT22;7350;51.208;4.238;2023-05-14T15:46:36;22.30;99.90
14527;DHT22;7350;51.208;4.238;2023-05-14T15:49:03;22.30;99.90